createdAt,value
2023-04-21T00:01:19.754Z,96097.81
2023-04-21T00:03:48.168Z,96098.59
2023-04-21T00:06:15.481Z,96089.03
2023-04-21T00:08:41.993Z,96080.94
2023-04-21T00:11:08.486Z,96070.38
2023-04-21T00:13:39.017Z,96057.44
2023-04-21T00:16:06.045Z,96030.28
2023-04-21T00:18:32.546Z,96017.50
2023-04-21T00:20:58.960Z,96002.31
2023-04-21T00:23:25.663Z,95991.78
2023-04-21T00:25:52.696Z,95972.75
2023-04-21T00:28:19.395Z,95958.34
2023-04-21T00:30:46.542Z,95920.88
2023-04-21T00:33:13.070Z,95884.81
2023-04-21T00:35:39.715Z,95877.31
2023-04-21T00:38:06.353Z,95853.63
2023-04-21T00:40:32.847Z,95829.13
2023-04-21T00:42:59.497Z,95820.44
2023-04-21T00:45:26.185Z,95794.13
2023-04-21T00:47:52.990Z,95779.72
2023-04-21T00:50:19.579Z,95761.72
2023-04-21T00:52:47.305Z,95737.22
2023-04-21T00:55:14.540Z,95705.47
2023-04-21T00:57:41.399Z,95677.34
2023-04-21T01:00:09.146Z,95658.91
2023-04-21T01:02:36.615Z,95624.53
2023-04-21T01:05:09.197Z,95599.06
2023-04-21T01:07:36.430Z,95575.19
2023-04-21T01:10:03.767Z,95555.97
2023-04-21T01:12:30.348Z,95530.28
2023-04-21T01:14:57.059Z,95513.31
2023-04-21T01:17:23.692Z,95495.50
2023-04-21T01:19:51.320Z,95487.41
2023-04-21T01:22:18.580Z,95461.13
2023-04-21T01:24:47.314Z,95450.22
2023-04-21T01:27:15.275Z,95433.44
2023-04-21T01:29:42.923Z,95418.09
2023-04-21T01:32:12.240Z,95398.47
2023-04-21T01:34:39.810Z,95372.00
2023-04-21T01:37:10.357Z,95365.31
2023-04-21T01:39:40.559Z,95354.03
2023-04-21T01:42:07.380Z,95335.44
2023-04-21T01:44:33.946Z,95321.13
2023-04-21T01:47:00.889Z,95296.25
2023-04-21T01:49:27.486Z,95276.84
2023-04-21T01:51:55.405Z,95267.97
2023-04-21T01:54:21.985Z,95243.31
2023-04-21T01:56:48.535Z,95233.44
2023-04-21T01:59:15.162Z,95214.19
2023-04-21T02:01:41.749Z,95200.28
2023-04-21T02:04:08.539Z,95195.22
2023-04-21T02:06:37.850Z,95186.34
2023-04-21T02:09:04.540Z,95167.53
2023-04-21T02:11:31.233Z,95169.56
2023-04-21T02:13:57.883Z,95151.34
2023-04-21T02:16:28.218Z,95143.88
2023-04-21T02:18:57.546Z,95146.50
2023-04-21T02:21:24.776Z,95137.00
2023-04-21T02:23:52.282Z,95137.28
2023-04-21T02:26:19.171Z,95129.78
2023-04-21T02:28:45.957Z,95135.06
2023-04-21T02:31:12.625Z,95136.50
2023-04-21T02:33:39.634Z,95146.00
2023-04-21T02:36:06.266Z,95144.84
2023-04-21T02:38:32.978Z,95142.84
2023-04-21T02:40:59.595Z,95126.66
2023-04-21T02:43:26.803Z,95138.59
2023-04-21T02:45:53.434Z,95129.50
2023-04-21T02:48:23.254Z,95124.25
2023-04-21T02:50:50.841Z,95104.06
2023-04-21T02:53:17.357Z,95106.91
2023-04-21T02:55:45.244Z,95092.97
2023-04-21T02:58:12.137Z,95094.97
2023-04-21T03:00:38.817Z,95092.97
2023-04-21T03:03:05.828Z,95098.41
2023-04-21T03:05:32.458Z,95084.22
2023-04-21T03:07:59.027Z,95106.84
2023-04-21T03:10:25.716Z,95102.25
2023-04-21T03:12:52.298Z,95110.47
2023-04-21T03:15:20.231Z,95118.19
2023-04-21T03:17:46.742Z,95119.38
2023-04-21T03:20:13.465Z,95135.34
2023-04-21T03:22:40.453Z,95137.16
2023-04-21T03:25:07.841Z,95129.91
2023-04-21T03:27:34.798Z,95136.31
2023-04-21T03:30:01.428Z,95145.81
2023-04-21T03:32:28.185Z,95159.31
2023-04-21T03:34:54.842Z,95173.06
2023-04-21T03:37:21.565Z,95182.78
2023-04-21T03:39:48.713Z,95183.13
2023-04-21T03:42:15.397Z,95190.22
2023-04-21T03:44:41.888Z,95206.00
2023-04-21T03:47:08.416Z,95216.69
2023-04-21T03:49:35.058Z,95231.63
2023-04-21T03:52:02.013Z,95238.09
2023-04-21T03:54:28.579Z,95246.59
2023-04-21T03:56:55.107Z,95257.28
2023-04-21T03:59:21.882Z,95286.56
2023-04-21T04:01:48.511Z,95294.03
2023-04-21T04:04:16.001Z,95315.06
2023-04-21T04:06:42.548Z,95337.91
2023-04-21T04:09:09.255Z,95358.53
2023-04-21T04:11:36.506Z,95367.41
2023-04-21T04:14:03.082Z,95386.84
2023-04-21T04:16:30.212Z,95403.00
2023-04-21T04:18:57.063Z,95417.94
2023-04-21T04:21:23.680Z,95432.91
2023-04-21T04:23:52.105Z,95439.34
2023-04-21T04:26:19.404Z,95448.66
2023-04-21T04:28:46.432Z,95446.22
2023-04-21T04:31:13.989Z,95451.88
2023-04-21T04:33:43.803Z,95457.34
2023-04-21T04:36:12.178Z,95449.28
2023-04-21T04:38:38.798Z,95447.66
2023-04-21T04:41:06.521Z,95441.38
2023-04-21T04:43:41.741Z,95442.22
2023-04-21T04:46:09.527Z,95450.28
2023-04-21T04:48:36.092Z,95460.97
2023-04-21T04:51:03.793Z,95458.97
2023-04-21T04:53:30.653Z,95464.22
2023-04-21T04:55:58.850Z,95466.03
2023-04-21T04:58:26.102Z,95470.66
2023-04-21T05:00:52.726Z,95479.75
2023-04-21T05:03:19.495Z,95475.91
2023-04-21T05:05:46.488Z,95487.63
2023-04-21T05:08:14.132Z,95504.81
2023-04-21T05:10:41.674Z,95500.19
2023-04-21T05:13:08.307Z,95508.84
2023-04-21T05:15:34.986Z,95520.16
2023-04-21T05:18:01.734Z,95517.34
2023-04-21T05:20:28.307Z,95535.13
2023-04-21T05:22:55.080Z,95547.28
2023-04-21T05:25:21.641Z,95553.13
2023-04-21T05:27:48.605Z,95562.59
2023-04-21T05:30:15.343Z,95564.25
2023-04-21T05:32:41.880Z,95585.28
2023-04-21T05:35:10.812Z,95595.38
2023-04-21T05:37:37.582Z,95604.47
2023-04-21T05:40:04.190Z,95626.09
2023-04-21T05:42:31.377Z,95630.56
2023-04-21T05:44:58.340Z,95656.06
2023-04-21T05:47:25.081Z,95675.88
2023-04-21T05:49:53.728Z,95717.06
2023-04-21T05:52:21.840Z,95710.66
2023-04-21T05:54:48.533Z,95734.88
2023-04-21T05:57:16.754Z,95739.34
2023-04-21T05:59:43.902Z,95741.78
2023-04-21T06:02:11.095Z,95738.34
2023-04-21T06:04:37.951Z,95747.31
2023-04-21T06:07:05.718Z,95772.38
2023-04-21T06:09:32.398Z,95791.44
2023-04-21T06:11:59.238Z,95829.25
2023-04-21T06:14:26.486Z,95833.91
2023-04-21T06:16:53.132Z,95849.50
2023-04-21T06:19:19.805Z,95833.41
2023-04-21T06:21:46.930Z,95910.31
2023-04-21T06:24:13.527Z,95927.19
2023-04-21T06:26:40.254Z,95933.56
2023-04-21T06:29:07.233Z,96038.72
2023-04-21T06:31:33.869Z,96109.75
2023-04-21T06:34:00.483Z,96121.91
2023-04-21T06:36:27.588Z,96171.91
2023-04-21T06:38:54.281Z,96160.41
2023-04-21T06:41:22.914Z,96135.63
2023-04-21T06:43:51.107Z,96133.47
2023-04-21T06:46:19.210Z,96151.56
2023-04-21T06:48:45.685Z,96111.88
2023-04-21T06:51:12.387Z,96214.41
2023-04-21T06:53:38.965Z,96277.38
2023-04-21T06:56:05.764Z,96513.97
2023-04-21T06:58:32.265Z,96626.06
2023-04-21T07:00:58.954Z,96752.63
2023-04-21T07:03:25.578Z,96797.47
2023-04-21T07:05:52.232Z,96895.69
2023-04-21T07:08:18.877Z,97004.50
2023-04-21T07:10:45.821Z,97033.47
2023-04-21T07:13:12.479Z,97060.34
2023-04-21T07:15:39.210Z,97215.00
2023-04-21T07:18:06.190Z,97295.06
2023-04-21T07:20:32.692Z,97389.34
2023-04-21T07:22:59.355Z,97417.13
2023-04-21T07:25:26.315Z,97399.81
2023-04-21T07:27:52.908Z,97453.63
2023-04-21T07:30:19.491Z,97509.16
2023-04-21T07:32:46.588Z,97514.44
2023-04-21T07:35:13.768Z,97545.44
2023-04-21T07:37:41.186Z,97530.09
2023-04-21T07:40:08.942Z,97467.63
2023-04-21T07:42:35.791Z,97519.53
2023-04-21T07:45:02.864Z,97549.00
2023-04-21T07:47:29.756Z,97559.91
2023-04-21T07:49:56.277Z,97574.09
2023-04-21T07:52:23.361Z,97563.34
2023-04-21T07:54:50.565Z,97532.81
2023-04-21T07:57:17.290Z,97540.03
2023-04-21T07:59:43.852Z,97541.44
2023-04-21T08:02:10.470Z,97525.63
2023-04-21T08:04:37.363Z,97513.88
2023-04-21T08:07:04.153Z,97526.09
2023-04-21T08:09:30.865Z,97520.69
2023-04-21T08:11:58.527Z,97515.31
2023-04-21T08:14:26.986Z,97490.28
2023-04-21T08:16:56.556Z,97476.03
2023-04-21T08:19:23.942Z,97466.66
2023-04-21T08:21:50.513Z,97474.19
2023-04-21T08:24:17.394Z,97442.50
2023-04-21T08:26:44.520Z,97422.94
2023-04-21T08:29:11.074Z,97408.47
2023-04-21T08:31:37.843Z,97400.03
2023-04-21T08:34:04.422Z,97407.38
2023-04-21T08:36:32.170Z,97437.19
2023-04-21T08:38:58.758Z,97421.00
2023-04-21T08:41:27.389Z,97418.91
2023-04-21T08:43:56.237Z,97411.88
2023-04-21T08:46:23.183Z,97396.69
2023-04-21T08:48:50.755Z,97406.94
2023-04-21T08:51:27.767Z,97411.84
2023-04-21T08:53:57.494Z,97400.63
2023-04-21T08:56:24.610Z,97404.94
2023-04-21T08:58:51.225Z,97432.38
2023-04-21T09:01:18.273Z,97411.03
2023-04-21T09:03:45.225Z,97452.41
2023-04-21T09:06:15.344Z,97387.78
2023-04-21T09:08:43.510Z,97443.69
2023-04-21T09:11:14.379Z,97486.16
2023-04-21T09:13:45.227Z,97445.47
2023-04-21T09:16:20.408Z,97956.50
2023-04-21T09:18:47.462Z,98249.19
2023-04-21T09:21:15.109Z,98450.50
2023-04-21T09:23:44.615Z,98521.34
2023-04-21T09:26:11.407Z,98598.38
2023-04-21T09:28:41.021Z,98574.53
2023-04-21T09:31:13.401Z,98566.88
2023-04-21T09:33:49.734Z,98525.00
2023-04-21T09:36:25.002Z,98622.56
2023-04-21T09:39:05.593Z,98642.69
2023-04-21T09:41:41.497Z,98732.53
2023-04-21T09:44:08.269Z,98738.34
2023-04-21T09:46:35.948Z,98704.06
2023-04-21T09:49:03.025Z,98576.78
2023-04-21T09:51:49.105Z,98604.31
2023-04-21T09:56:53.145Z,98684.13
2023-04-21T09:59:22.971Z,98664.31
2023-04-21T10:01:50.470Z,98600.72
2023-04-21T10:04:18.200Z,98592.22
2023-04-21T10:06:46.132Z,98590.31
2023-04-21T10:09:13.474Z,98631.75
2023-04-21T10:11:41.562Z,98577.94
2023-04-21T10:14:09.335Z,98607.72
2023-04-21T10:16:39.666Z,98585.13
2023-04-21T10:19:26.150Z,98634.13
2023-04-21T10:21:55.920Z,98682.91
2023-04-21T10:24:22.507Z,98686.94
2023-04-21T10:26:53.275Z,98704.63
2023-04-21T10:29:43.712Z,98721.22
2023-04-21T10:32:31.319Z,98703.44
2023-04-21T10:34:58.327Z,98733.47
2023-04-21T10:37:25.086Z,98725.97
2023-04-21T10:39:52.939Z,98756.16
2023-04-21T10:42:21.164Z,98760.63
2023-04-21T10:44:53.918Z,98729.72
2023-04-21T10:47:38.871Z,98728.66
2023-04-21T10:50:22.655Z,98759.59
2023-04-21T10:52:54.189Z,98768.41
2023-04-21T10:55:22.870Z,98789.19
2023-04-21T10:57:50.250Z,98789.66
2023-04-21T11:00:18.836Z,98772.34
2023-04-21T11:02:53.383Z,98751.75
2023-04-21T11:05:20.649Z,98748.50
2023-04-21T11:07:47.146Z,98739.97
2023-04-21T11:10:13.804Z,98733.44
2023-04-21T11:12:41.072Z,98729.09
2023-04-21T11:15:09.045Z,98748.84
2023-04-21T11:17:36.837Z,98744.97
2023-04-21T11:20:05.216Z,98754.22
2023-04-21T11:22:31.734Z,98747.84
2023-04-21T11:24:59.116Z,98759.94
2023-04-21T11:27:30.361Z,98749.25
2023-04-21T11:29:58.069Z,98766.31
2023-04-21T11:32:25.301Z,98757.81
2023-04-21T11:34:52.858Z,98754.69
2023-04-21T11:37:29.702Z,98749.00
2023-04-21T11:40:04.905Z,98741.38
2023-04-21T11:42:31.502Z,98741.88
2023-04-21T11:45:00.003Z,98733.91
2023-04-21T11:47:27.908Z,98730.88
2023-04-21T11:49:56.573Z,98735.72
2023-04-21T11:52:23.536Z,98734.66
2023-04-21T11:54:55.004Z,98718.53
2023-04-21T11:57:22.854Z,98717.28
2023-04-21T11:59:49.636Z,98717.00
2023-04-21T12:02:27.247Z,98717.91
2023-04-21T12:04:57.898Z,98713.69
2023-04-21T12:07:24.680Z,98711.19
2023-04-21T12:09:59.698Z,98704.50
2023-04-21T12:12:26.882Z,98709.69
2023-04-21T12:14:53.818Z,98714.56
2023-04-21T12:17:20.898Z,98715.41
2023-04-21T12:19:47.694Z,98733.63
2023-04-21T12:22:22.164Z,98705.97
2023-04-21T12:24:48.712Z,98705.09
2023-04-21T12:27:15.555Z,98706.78
2023-04-21T12:29:42.905Z,98707.25
2023-04-21T12:32:10.035Z,98712.97
2023-04-21T12:34:37.794Z,98713.97
2023-04-21T12:37:05.463Z,98699.75
2023-04-21T12:39:32.284Z,98703.25
2023-04-21T12:41:59.695Z,98695.25
2023-04-21T12:44:26.693Z,98701.75
2023-04-21T12:46:53.445Z,98701.59
2023-04-21T12:49:20.797Z,98698.88
2023-04-21T12:51:47.487Z,98714.97
2023-04-21T12:54:14.163Z,98702.22
2023-04-21T12:56:43.130Z,98701.75
2023-04-21T12:59:10.788Z,98702.41
2023-04-21T13:01:41.925Z,98694.63
2023-04-21T13:04:09.395Z,98694.25
2023-04-21T13:06:38.252Z,98693.16
2023-04-21T13:09:06.430Z,98691.19
2023-04-21T13:11:33.339Z,98698.38
2023-04-21T13:13:59.922Z,98690.72
2023-04-21T13:16:28.622Z,98679.72
2023-04-21T13:18:56.681Z,98687.06
2023-04-21T13:21:23.200Z,98693.63
2023-04-21T13:23:50.442Z,98687.56
2023-04-21T13:26:17.957Z,98681.44
2023-04-21T13:28:44.555Z,98683.13
2023-04-21T13:31:11.244Z,98676.44
2023-04-21T13:33:38.828Z,98676.25
2023-04-21T13:36:05.682Z,98668.28
2023-04-21T13:38:32.857Z,98672.50
2023-04-21T13:40:59.740Z,98661.56
2023-04-21T13:43:26.280Z,98649.72
2023-04-21T13:45:53.177Z,98651.25
2023-04-21T13:48:21.512Z,98637.72
2023-04-21T13:50:48.319Z,98637.25
2023-04-21T13:53:17.633Z,98635.84
2023-04-21T13:55:45.336Z,98631.53
2023-04-21T13:58:12.272Z,98629.25
2023-04-21T14:00:39.517Z,98629.09
2023-04-21T14:03:07.052Z,98621.63
2023-04-21T14:05:34.384Z,98625.41
2023-04-21T14:08:01.617Z,98615.03
2023-04-21T14:10:28.338Z,98610.28
2023-04-21T14:12:55.154Z,98605.94
2023-04-21T14:15:21.903Z,98601.03
2023-04-21T14:17:48.607Z,98613.97
2023-04-21T14:20:15.364Z,98613.03
2023-04-21T14:22:42.069Z,98616.25
2023-04-21T14:25:08.759Z,98608.44
2023-04-21T14:27:35.628Z,98608.47
2023-04-21T14:30:02.833Z,98599.41
2023-04-21T14:32:29.542Z,98605.16
2023-04-21T14:34:58.824Z,98598.75
2023-04-21T14:37:26.806Z,98589.28
2023-04-21T14:39:53.571Z,98587.78
2023-04-21T14:42:20.228Z,98591.09
2023-04-21T14:44:46.722Z,98565.00
2023-04-21T14:47:13.562Z,98569.88
2023-04-21T14:49:40.366Z,98573.69
2023-04-21T14:52:07.764Z,98578.88
2023-04-21T14:54:34.806Z,98571.50
2023-04-21T14:57:18.013Z,98559.66
2023-04-21T14:59:47.818Z,98565.75
2023-04-21T15:02:14.698Z,98571.84
2023-04-21T15:04:41.569Z,98563.72
2023-04-21T15:07:10.645Z,98572.84
2023-04-21T15:09:37.798Z,98555.97
2023-04-21T15:12:05.290Z,98556.13
2023-04-21T15:14:32.146Z,98550.34
2023-04-21T15:16:58.815Z,98552.63
2023-04-21T15:19:25.795Z,98552.81
2023-04-21T15:21:52.964Z,98549.09
2023-04-21T15:24:20.162Z,98544.31
2023-04-21T15:26:46.663Z,98532.31
2023-04-21T15:29:13.300Z,98537.31
2023-04-21T15:31:40.307Z,98533.56
2023-04-21T15:34:07.007Z,98529.06
2023-04-21T15:36:33.590Z,98528.53
2023-04-21T15:39:01.066Z,98531.31
2023-04-21T15:41:29.673Z,98540.19
2023-04-21T15:43:56.187Z,98531.47
2023-04-21T15:46:23.391Z,98520.53
2023-04-21T15:48:50.087Z,98526.97
2023-04-21T15:51:17.699Z,98516.94
2023-04-21T15:53:48.039Z,98529.59
2023-04-21T15:56:15.565Z,98522.88
2023-04-21T15:58:42.323Z,98515.84
2023-04-21T16:01:09.132Z,98523.78
2023-04-21T16:03:35.842Z,98529.94
2023-04-21T16:06:03.112Z,98515.06
2023-04-21T16:08:30.641Z,98516.38
2023-04-21T16:10:57.176Z,98511.59
2023-04-21T16:13:23.762Z,98512.25
2023-04-21T16:15:50.475Z,98509.78
2023-04-21T16:18:17.027Z,98505.66
2023-04-21T16:20:45.997Z,98516.81
2023-04-21T16:23:13.170Z,98506.50
2023-04-21T16:25:40.121Z,98506.50
2023-04-21T16:28:07.096Z,98497.00
2023-04-21T16:30:35.237Z,98493.72
2023-04-21T16:33:02.125Z,98493.31
2023-04-21T16:35:28.795Z,98500.34
2023-04-21T16:37:55.381Z,98495.41
2023-04-21T16:40:22.435Z,98496.19
2023-04-21T16:42:49.195Z,98492.09
2023-04-21T16:45:15.883Z,98499.53
2023-04-21T16:47:42.742Z,98497.44
2023-04-21T16:50:10.199Z,98485.28
2023-04-21T16:52:37.004Z,98490.44
2023-04-21T16:55:03.626Z,98487.75
2023-04-21T16:57:31.725Z,98487.38
2023-04-21T17:00:01.507Z,98483.03
2023-04-21T17:02:28.623Z,98476.44
2023-04-21T17:04:55.984Z,98475.81
2023-04-21T17:07:22.576Z,98472.72
2023-04-21T17:09:50.838Z,98473.53
2023-04-21T17:12:17.647Z,98469.63
2023-04-21T17:14:44.583Z,98479.28
2023-04-21T17:17:11.260Z,98476.81
2023-04-21T17:19:37.852Z,98469.31
2023-04-21T17:22:04.468Z,98468.91
2023-04-21T17:24:51.547Z,98464.38
2023-04-21T17:27:19.511Z,98458.81
2023-04-21T17:29:47.007Z,98453.19
2023-04-21T17:32:14.106Z,98448.88
2023-04-21T17:34:40.830Z,98455.66
2023-04-21T17:37:07.371Z,98447.41
2023-04-21T17:39:37.038Z,98440.00
2023-04-21T17:42:03.765Z,98446.97
2023-04-21T17:44:30.554Z,98441.78
2023-04-21T17:46:58.280Z,98453.09
2023-04-21T17:49:25.513Z,98438.66
2023-04-21T17:51:52.136Z,98451.44
2023-04-21T17:54:19.261Z,98447.28
2023-04-21T17:56:46.527Z,98443.34
2023-04-21T17:59:13.525Z,98443.75
2023-04-21T18:01:40.271Z,98446.59
2023-04-21T18:04:07.375Z,98438.94
2023-04-21T18:06:34.541Z,98441.38
2023-04-21T18:09:01.151Z,98441.75
2023-04-21T18:11:27.923Z,98450.72
2023-04-21T18:13:54.413Z,98452.31
2023-04-21T18:16:21.567Z,98442.38
2023-04-21T18:18:48.704Z,98441.13
2023-04-21T18:21:16.203Z,98444.19
2023-04-21T18:23:43.604Z,98446.00
2023-04-21T18:26:10.550Z,98443.72
2023-04-21T18:28:37.292Z,98442.94
2023-04-21T18:31:03.959Z,98448.06
2023-04-21T18:33:30.689Z,98442.09
2023-04-21T18:35:57.340Z,98447.19
2023-04-21T18:38:24.310Z,98455.97
2023-04-21T18:40:50.940Z,98450.56
2023-04-21T18:43:17.666Z,98457.97
2023-04-21T18:45:44.213Z,98455.28
2023-04-21T18:48:10.954Z,98455.75
2023-04-21T18:50:40.515Z,98463.94
2023-04-21T18:53:08.014Z,98462.53
2023-04-21T18:55:36.020Z,98457.59
2023-04-21T18:58:02.638Z,98427.75
2023-04-21T19:00:30.309Z,98416.09
2023-04-21T19:02:57.130Z,98386.59
2023-04-21T19:05:23.889Z,98386.22
2023-04-21T19:07:50.646Z,98395.06
2023-04-21T19:10:17.431Z,98402.88
2023-04-21T19:12:44.513Z,98385.06
2023-04-21T19:15:12.100Z,98395.75
2023-04-21T19:17:39.831Z,98369.25
2023-04-21T19:20:07.035Z,98336.34
2023-04-21T19:22:36.422Z,98330.38
2023-04-21T19:25:03.361Z,98330.38
2023-04-21T19:27:30.527Z,98316.78
2023-04-21T19:29:57.722Z,98306.50
2023-04-21T19:32:24.719Z,98291.38
2023-04-21T19:34:51.654Z,98260.25
2023-04-21T19:37:18.187Z,98236.75
2023-04-21T19:39:45.084Z,98202.59
2023-04-21T19:42:11.652Z,98156.78
2023-04-21T19:44:39.314Z,98101.72
2023-04-21T19:47:06.247Z,98039.16
2023-04-21T19:49:32.809Z,97970.91
2023-04-21T19:52:00.163Z,97890.19
2023-04-21T19:54:26.955Z,97823.22
2023-04-21T19:56:53.574Z,97753.19
2023-04-21T19:59:20.457Z,97698.53
2023-04-21T20:01:47.003Z,97582.50
2023-04-21T20:04:13.947Z,97505.97
2023-04-21T20:06:42.331Z,97437.00
2023-04-21T20:09:10.466Z,97366.63
2023-04-21T20:11:37.317Z,97323.47
2023-04-21T20:14:04.023Z,97271.31
2023-04-21T20:16:32.108Z,97241.03
2023-04-21T20:18:59.094Z,97229.38
2023-04-21T20:21:25.795Z,97198.91
2023-04-21T20:23:52.760Z,97196.44
2023-04-21T20:26:19.440Z,97178.84
2023-04-21T20:28:46.119Z,97176.00
2023-04-21T20:31:12.803Z,97169.88
2023-04-21T20:33:39.692Z,97166.59
2023-04-21T20:36:09.207Z,97169.06
2023-04-21T20:38:35.817Z,97180.09
2023-04-21T20:41:03.798Z,97196.88
2023-04-21T20:43:33.432Z,97210.16
2023-04-21T20:46:01.568Z,97213.22
2023-04-21T20:48:28.195Z,97215.69
2023-04-21T20:50:55.225Z,97212.00
2023-04-21T20:53:22.361Z,97237.13
2023-04-21T20:55:49.041Z,97228.75
2023-04-21T20:58:19.478Z,97225.06
2023-04-21T21:00:46.445Z,97225.25
2023-04-21T21:03:13.929Z,97232.63
2023-04-21T21:05:41.119Z,97231.22
2023-04-21T21:08:08.217Z,97234.88
2023-04-21T21:10:35.546Z,97225.03
2023-04-21T21:13:02.016Z,97186.34
2023-04-21T21:15:30.637Z,97169.31
2023-04-21T21:17:57.703Z,97156.31
2023-04-21T21:20:24.519Z,97180.88
2023-04-21T21:22:50.979Z,97191.88
2023-04-21T21:25:18.257Z,97190.66
2023-04-21T21:27:45.175Z,97174.84
2023-04-21T21:30:12.103Z,97160.09
2023-04-21T21:32:39.268Z,97159.47
2023-04-21T21:35:07.713Z,97139.66
2023-04-21T21:37:34.462Z,97120.84
2023-04-21T21:40:01.279Z,97127.59
2023-04-21T21:42:27.850Z,97119.63
2023-04-21T21:44:54.529Z,97102.09
2023-04-21T21:47:21.576Z,97104.56
2023-04-21T21:49:48.980Z,97080.44
2023-04-21T21:52:15.551Z,97075.56
2023-04-21T21:54:42.204Z,97077.00
2023-04-21T21:57:08.728Z,97081.03
2023-04-21T21:59:35.567Z,97072.84
2023-04-21T22:02:02.243Z,97070.84
2023-04-21T22:04:28.922Z,97053.09
2023-04-21T22:06:55.706Z,97046.13
2023-04-21T22:09:22.530Z,97024.03
2023-04-21T22:11:49.119Z,96994.03
2023-04-21T22:14:22.675Z,96970.34
2023-04-21T22:16:50.879Z,96968.91
2023-04-21T22:19:19.229Z,96957.69
2023-04-21T22:21:46.026Z,96949.75
2023-04-21T22:24:12.550Z,96951.56
2023-04-21T22:26:39.118Z,96945.47
2023-04-21T22:29:06.158Z,96934.25
2023-04-21T22:31:33.252Z,96927.47
2023-04-21T22:33:59.859Z,96925.66
2023-04-21T22:36:26.544Z,96956.41
2023-04-21T22:38:53.187Z,96952.31
2023-04-21T22:41:20.504Z,96987.75
2023-04-21T22:43:47.614Z,97004.00
2023-04-21T22:46:14.805Z,97025.69
2023-04-21T22:48:41.425Z,97060.03
2023-04-21T22:51:08.174Z,97042.13
2023-04-21T22:53:35.087Z,97077.50
2023-04-21T22:56:03.151Z,97090.50
2023-04-21T22:58:29.861Z,97121.09
2023-04-21T23:00:56.553Z,97117.84
2023-04-21T23:03:23.980Z,97114.88
2023-04-21T23:05:50.617Z,97080.56
2023-04-21T23:08:17.175Z,97008.63
2023-04-21T23:10:43.763Z,96986.31
2023-04-21T23:13:10.263Z,96955.78
2023-04-21T23:15:36.800Z,96905.81
2023-04-21T23:18:03.526Z,96885.03
2023-04-21T23:20:30.196Z,96862.84
2023-04-21T23:22:56.730Z,96836.81
2023-04-21T23:25:23.604Z,96804.19
2023-04-21T23:27:50.104Z,96787.59
2023-04-21T23:30:16.910Z,96775.84
2023-04-21T23:32:43.876Z,96760.69
2023-04-21T23:35:10.865Z,96734.63
2023-04-21T23:37:37.491Z,96735.72
2023-04-21T23:40:09.309Z,96704.34
2023-04-21T23:42:36.350Z,96681.38
2023-04-21T23:45:03.729Z,96660.66
2023-04-21T23:47:30.517Z,96595.44
2023-04-21T23:49:57.246Z,96539.41
2023-04-21T23:52:24.130Z,96526.66
2023-04-21T23:54:51.104Z,96524.72
2023-04-21T23:57:17.742Z,96527.94
2023-04-21T23:59:44.478Z,96527.50
